This is the latest recevied weather packets stored in our database for station/object VU3YEJ-WX. If no packets are shown the sender has not sent any weather packets the latest 10 day(s).
| Time | Temp. | Humidity | Pressure | Rain* | Wind** | Luminosity | Snow |
|---|---|---|---|---|---|---|---|
| 1787496650 | 22.78° C | 100% | 1012 hPa | - | - | - | - |
| 1787494846 | 22.78° C | 100% | 1011 hPa | - | - | - | - |
| 1787493046 | 23.89° C | 94% | 1011 hPa | - | - | - | - |
| 1787491258 | 23.89° C | 94% | 1011 hPa | - | - | - | - |
| 1787489446 | 23.89° C | 94% | 1010 hPa | - | - | - | - |
| 1787487644 | 25° C | 89% | 1011 hPa | - | - | - | - |
| 1787485844 | 25° C | 94% | 1010 hPa | - | - | - | - |
| 1787484046 | 23.89° C | 100% | 1011 hPa | - | - | - | - |
| 1787482246 | 25° C | 94% | 1010 hPa | - | - | - | - |
| 1787480452 | 26.11° C | 94% | 1010 hPa | - | - | - | - |
| 1787478646 | 26.11° C | 94% | 1010 hPa | - | - | - | - |
| 1787476845 | 26.11° C | 94% | 1010 hPa | - | - | - | - |
| 1787475051 | 25° C | 100% | 1011 hPa | - | - | - | - |
| 1787473246 | 25° C | 100% | 1011 hPa | - | - | - | - |
| 1787471444 | 23.89° C | 100% | 1012 hPa | - | - | - | - |
| 1787469644 | 27.22° C | 84% | 1011 hPa | - | - | - | - |
| 1787467845 | 27.78° C | 79% | 1012 hPa | - | - | - | - |
| 1787466046 | 27.22° C | 84% | 1012 hPa | - | - | - | - |
| 1787464244 | 26.11° C | 94% | 1013 hPa | - | - | - | - |
| 1787462444 | 23.89° C | 100% | 1013 hPa | - | - | - | - |
| 1787461244 | 22.78° C | 100% | 1013 hPa | - | - | - | - |
| 1787455244 | 23.89° C | 100% | 1012 hPa | - | - | - | - |
| 1787453449 | 22.78° C | 100% | 1012 hPa | - | - | - | - |
| 1787451646 | 22.78° C | 100% | 1011 hPa | - | - | - | - |
| 1787449845 | 22.78° C | 100% | 1011 hPa | - | - | - | - |
* Rain since midnight (hover to see other rain measurements)
** Current wind speed in m/s (hover to see current wind gust speed)